sensor_id;sensor_type;location;lat;lon;timestamp;P1;durP1;ratioP1;P2;durP2;ratioP2
44564;SDS011;30275;51.822;-0.326;2022-11-15T00:00:53;6.53;;;1.52;;
44564;SDS011;30275;51.822;-0.326;2022-11-15T00:03:23;4.85;;;1.60;;
44564;SDS011;30275;51.822;-0.326;2022-11-15T00:05:50;4.47;;;1.48;;
44564;SDS011;30275;51.822;-0.326;2022-11-15T00:08:16;5.45;;;2.58;;
44564;SDS011;30275;51.822;-0.326;2022-11-15T00:10:41;7.40;;;1.88;;
44564;SDS011;30275;51.822;-0.326;2022-11-15T00:13:08;4.05;;;1.52;;
44564;SDS011;30275;51.822;-0.326;2022-11-15T00:15:36;5.57;;;1.67;;
44564;SDS011;30275;51.822;-0.326;2022-11-15T00:18:03;8.48;;;2.50;;
44564;SDS011;30275;51.822;-0.326;2022-11-15T00:20:29;8.07;;;2.13;;
44564;SDS011;30275;51.822;-0.326;2022-11-15T00:22:54;5.45;;;1.95;;
44564;SDS011;30275;51.822;-0.326;2022-11-15T00:25:20;3.13;;;1.65;;
44564;SDS011;30275;51.822;-0.326;2022-11-15T00:27:46;5.95;;;1.77;;
44564;SDS011;30275;51.822;-0.326;2022-11-15T00:30:11;5.00;;;1.65;;
44564;SDS011;30275;51.822;-0.326;2022-11-15T00:32:37;7.05;;;1.92;;
44564;SDS011;30275;51.822;-0.326;2022-11-15T00:35:03;5.45;;;2.00;;
44564;SDS011;30275;51.822;-0.326;2022-11-15T00:37:29;4.00;;;2.03;;
44564;SDS011;30275;51.822;-0.326;2022-11-15T00:39:54;4.32;;;2.45;;
44564;SDS011;30275;51.822;-0.326;2022-11-15T00:42:20;5.75;;;1.70;;
44564;SDS011;30275;51.822;-0.326;2022-11-15T00:44:45;7.43;;;2.20;;
44564;SDS011;30275;51.822;-0.326;2022-11-15T00:47:11;5.68;;;2.30;;
44564;SDS011;30275;51.822;-0.326;2022-11-15T00:49:37;6.15;;;2.10;;
44564;SDS011;30275;51.822;-0.326;2022-11-15T00:52:02;4.45;;;2.15;;
44564;SDS011;30275;51.822;-0.326;2022-11-15T00:54:28;6.57;;;2.60;;
44564;SDS011;30275;51.822;-0.326;2022-11-15T00:56:54;5.68;;;2.40;;
44564;SDS011;30275;51.822;-0.326;2022-11-15T00:59:19;8.02;;;2.53;;
44564;SDS011;30275;51.822;-0.326;2022-11-15T01:01:45;7.57;;;2.35;;
44564;SDS011;30275;51.822;-0.326;2022-11-15T01:04:10;4.65;;;2.33;;
44564;SDS011;30275;51.822;-0.326;2022-11-15T01:06:36;7.35;;;3.05;;
44564;SDS011;30275;51.822;-0.326;2022-11-15T01:09:02;8.02;;;2.20;;
44564;SDS011;30275;51.822;-0.326;2022-11-15T01:11:27;9.05;;;3.05;;
44564;SDS011;30275;51.822;-0.326;2022-11-15T01:13:53;4.75;;;2.25;;
44564;SDS011;30275;51.822;-0.326;2022-11-15T01:16:20;5.10;;;2.33;;
44564;SDS011;30275;51.822;-0.326;2022-11-15T01:18:46;5.55;;;2.25;;
44564;SDS011;30275;51.822;-0.326;2022-11-15T01:21:16;9.93;;;2.63;;
44564;SDS011;30275;51.822;-0.326;2022-11-15T01:23:43;5.70;;;2.15;;
44564;SDS011;30275;51.822;-0.326;2022-11-15T01:26:10;6.50;;;2.83;;
44564;SDS011;30275;51.822;-0.326;2022-11-15T01:28:38;7.35;;;2.85;;
44564;SDS011;30275;51.822;-0.326;2022-11-15T01:31:07;7.80;;;1.90;;
44564;SDS011;30275;51.822;-0.326;2022-11-15T01:33:37;7.43;;;2.25;;
44564;SDS011;30275;51.822;-0.326;2022-11-15T01:36:36;6.55;;;2.40;;
44564;SDS011;30275;51.822;-0.326;2022-11-15T01:38:55;8.23;;;2.20;;
44564;SDS011;30275;51.822;-0.326;2022-11-15T01:41:23;5.70;;;2.20;;
44564;SDS011;30275;51.822;-0.326;2022-11-15T01:43:55;5.85;;;2.80;;
44564;SDS011;30275;51.822;-0.326;2022-11-15T01:46:33;7.75;;;2.13;;
44564;SDS011;30275;51.822;-0.326;2022-11-15T01:49:02;7.30;;;2.20;;
44564;SDS011;30275;51.822;-0.326;2022-11-15T01:51:36;6.05;;;2.08;;
44564;SDS011;30275;51.822;-0.326;2022-11-15T01:54:07;8.27;;;2.00;;
44564;SDS011;30275;51.822;-0.326;2022-11-15T01:56:38;7.38;;;3.75;;
44564;SDS011;30275;51.822;-0.326;2022-11-15T01:59:10;9.52;;;2.30;;
44564;SDS011;30275;51.822;-0.326;2022-11-15T02:01:36;6.80;;;2.10;;
44564;SDS011;30275;51.822;-0.326;2022-11-15T02:04:13;6.43;;;2.35;;
44564;SDS011;30275;51.822;-0.326;2022-11-15T02:06:46;6.38;;;2.25;;
44564;SDS011;30275;51.822;-0.326;2022-11-15T02:09:13;3.63;;;1.70;;
44564;SDS011;30275;51.822;-0.326;2022-11-15T02:11:39;4.93;;;2.05;;
44564;SDS011;30275;51.822;-0.326;2022-11-15T02:14:05;7.72;;;2.42;;
44564;SDS011;30275;51.822;-0.326;2022-11-15T02:21:50;12.15;;;2.67;;
44564;SDS011;30275;51.822;-0.326;2022-11-15T02:24:47;5.60;;;2.17;;
44564;SDS011;30275;51.822;-0.326;2022-11-15T02:32:29;6.90;;;1.60;;
44564;SDS011;30275;51.822;-0.326;2022-11-15T02:37:57;12.05;;;3.50;;
44564;SDS011;30275;51.822;-0.326;2022-11-15T02:40:34;7.43;;;2.00;;
44564;SDS011;30275;51.822;-0.326;2022-11-15T02:43:10;6.80;;;1.70;;
44564;SDS011;30275;51.822;-0.326;2022-11-15T02:46:00;7.18;;;1.90;;
44564;SDS011;30275;51.822;-0.326;2022-11-15T02:48:31;6.28;;;1.65;;
44564;SDS011;30275;51.822;-0.326;2022-11-15T02:50:58;7.15;;;1.60;;
44564;SDS011;30275;51.822;-0.326;2022-11-15T02:53:25;10.27;;;2.30;;
44564;SDS011;30275;51.822;-0.326;2022-11-15T02:55:51;9.93;;;2.20;;
44564;SDS011;30275;51.822;-0.326;2022-11-15T02:58:25;4.72;;;1.58;;
44564;SDS011;30275;51.822;-0.326;2022-11-15T03:01:03;6.25;;;1.63;;
44564;SDS011;30275;51.822;-0.326;2022-11-15T03:04:02;4.05;;;1.80;;
44564;SDS011;30275;51.822;-0.326;2022-11-15T03:07:33;7.40;;;1.90;;
44564;SDS011;30275;51.822;-0.326;2022-11-15T03:12:37;7.57;;;1.75;;
44564;SDS011;30275;51.822;-0.326;2022-11-15T03:15:28;6.60;;;1.60;;
44564;SDS011;30275;51.822;-0.326;2022-11-15T03:18:14;7.68;;;1.55;;
44564;SDS011;30275;51.822;-0.326;2022-11-15T03:21:01;9.20;;;1.83;;
44564;SDS011;30275;51.822;-0.326;2022-11-15T03:23:30;8.65;;;1.83;;
44564;SDS011;30275;51.822;-0.326;2022-11-15T03:25:58;9.43;;;2.45;;
44564;SDS011;30275;51.822;-0.326;2022-11-15T03:28:28;7.07;;;1.73;;
44564;SDS011;30275;51.822;-0.326;2022-11-15T03:31:16;6.13;;;1.45;;
44564;SDS011;30275;51.822;-0.326;2022-11-15T03:34:03;11.13;;;2.15;;
44564;SDS011;30275;51.822;-0.326;2022-11-15T03:36:32;9.15;;;1.67;;
44564;SDS011;30275;51.822;-0.326;2022-11-15T03:38:59;10.20;;;1.88;;
44564;SDS011;30275;51.822;-0.326;2022-11-15T03:41:30;5.65;;;2.10;;
44564;SDS011;30275;51.822;-0.326;2022-11-15T03:44:16;6.75;;;1.73;;
44564;SDS011;30275;51.822;-0.326;2022-11-15T03:47:01;8.35;;;1.92;;
44564;SDS011;30275;51.822;-0.326;2022-11-15T03:49:29;7.60;;;2.90;;
44564;SDS011;30275;51.822;-0.326;2022-11-15T03:51:59;5.72;;;1.65;;
44564;SDS011;30275;51.822;-0.326;2022-11-15T03:54:26;7.97;;;2.20;;
44564;SDS011;30275;51.822;-0.326;2022-11-15T03:56:52;4.88;;;1.70;;
44564;SDS011;30275;51.822;-0.326;2022-11-15T03:59:18;7.80;;;1.73;;
44564;SDS011;30275;51.822;-0.326;2022-11-15T04:01:43;7.47;;;1.98;;
44564;SDS011;30275;51.822;-0.326;2022-11-15T04:04:09;8.68;;;1.88;;
44564;SDS011;30275;51.822;-0.326;2022-11-15T04:06:34;7.93;;;3.22;;
44564;SDS011;30275;51.822;-0.326;2022-11-15T04:09:00;7.65;;;2.22;;
44564;SDS011;30275;51.822;-0.326;2022-11-15T04:11:26;8.18;;;1.70;;
44564;SDS011;30275;51.822;-0.326;2022-11-15T04:13:51;6.80;;;3.03;;
44564;SDS011;30275;51.822;-0.326;2022-11-15T04:16:17;5.90;;;2.30;;
44564;SDS011;30275;51.822;-0.326;2022-11-15T04:18:42;11.48;;;2.15;;
44564;SDS011;30275;51.822;-0.326;2022-11-15T04:21:08;9.52;;;2.05;;
44564;SDS011;30275;51.822;-0.326;2022-11-15T04:23:52;8.25;;;1.98;;
44564;SDS011;30275;51.822;-0.326;2022-11-15T04:26:30;6.22;;;1.85;;
44564;SDS011;30275;51.822;-0.326;2022-11-15T04:28:56;10.93;;;1.77;;
44564;SDS011;30275;51.822;-0.326;2022-11-15T04:31:40;10.32;;;1.80;;
44564;SDS011;30275;51.822;-0.326;2022-11-15T04:34:06;11.50;;;1.92;;
44564;SDS011;30275;51.822;-0.326;2022-11-15T04:36:32;9.20;;;2.17;;
44564;SDS011;30275;51.822;-0.326;2022-11-15T04:39:16;8.60;;;2.33;;
44564;SDS011;30275;51.822;-0.326;2022-11-15T04:41:42;5.97;;;1.75;;
44564;SDS011;30275;51.822;-0.326;2022-11-15T04:44:07;8.95;;;1.90;;
44564;SDS011;30275;51.822;-0.326;2022-11-15T04:46:34;9.65;;;1.88;;
44564;SDS011;30275;51.822;-0.326;2022-11-15T04:49:00;7.28;;;1.92;;
44564;SDS011;30275;51.822;-0.326;2022-11-15T04:51:25;7.25;;;1.65;;
44564;SDS011;30275;51.822;-0.326;2022-11-15T04:53:51;9.10;;;2.08;;
44564;SDS011;30275;51.822;-0.326;2022-11-15T04:56:17;9.32;;;1.90;;
44564;SDS011;30275;51.822;-0.326;2022-11-15T04:58:42;9.32;;;1.92;;
44564;SDS011;30275;51.822;-0.326;2022-11-15T05:01:12;10.20;;;2.25;;
44564;SDS011;30275;51.822;-0.326;2022-11-15T05:03:41;8.82;;;1.92;;
44564;SDS011;30275;51.822;-0.326;2022-11-15T05:06:26;7.05;;;1.70;;
44564;SDS011;30275;51.822;-0.326;2022-11-15T05:08:52;7.78;;;1.83;;
44564;SDS011;30275;51.822;-0.326;2022-11-15T05:11:18;4.65;;;1.55;;
44564;SDS011;30275;51.822;-0.326;2022-11-15T05:13:45;6.20;;;2.47;;
44564;SDS011;30275;51.822;-0.326;2022-11-15T05:16:11;5.80;;;1.90;;
44564;SDS011;30275;51.822;-0.326;2022-11-15T05:18:36;9.07;;;2.05;;
44564;SDS011;30275;51.822;-0.326;2022-11-15T05:21:06;10.25;;;1.98;;
44564;SDS011;30275;51.822;-0.326;2022-11-15T05:23:33;9.60;;;1.65;;
44564;SDS011;30275;51.822;-0.326;2022-11-15T05:25:59;11.98;;;1.60;;
44564;SDS011;30275;51.822;-0.326;2022-11-15T05:28:29;9.43;;;1.70;;
44564;SDS011;30275;51.822;-0.326;2022-11-15T05:31:02;8.77;;;2.25;;
44564;SDS011;30275;51.822;-0.326;2022-11-15T05:33:29;9.15;;;1.95;;
44564;SDS011;30275;51.822;-0.326;2022-11-15T05:35:56;7.72;;;1.92;;
44564;SDS011;30275;51.822;-0.326;2022-11-15T05:38:33;9.13;;;1.73;;
44564;SDS011;30275;51.822;-0.326;2022-11-15T05:41:02;7.50;;;1.90;;
44564;SDS011;30275;51.822;-0.326;2022-11-15T05:43:29;8.80;;;1.90;;
44564;SDS011;30275;51.822;-0.326;2022-11-15T05:45:58;14.38;;;2.50;;
44564;SDS011;30275;51.822;-0.326;2022-11-15T05:48:25;12.55;;;3.38;;
44564;SDS011;30275;51.822;-0.326;2022-11-15T05:50:52;7.68;;;2.17;;
44564;SDS011;30275;51.822;-0.326;2022-11-15T05:53:18;7.88;;;1.75;;
44564;SDS011;30275;51.822;-0.326;2022-11-15T05:55:46;10.05;;;2.03;;
44564;SDS011;30275;51.822;-0.326;2022-11-15T05:58:12;8.13;;;1.67;;
44564;SDS011;30275;51.822;-0.326;2022-11-15T06:00:38;9.70;;;3.10;;
44564;SDS011;30275;51.822;-0.326;2022-11-15T06:03:04;6.13;;;2.28;;
44564;SDS011;30275;51.822;-0.326;2022-11-15T06:05:29;9.90;;;2.28;;
44564;SDS011;30275;51.822;-0.326;2022-11-15T06:07:58;11.35;;;2.05;;
44564;SDS011;30275;51.822;-0.326;2022-11-15T06:10:24;10.73;;;1.90;;
44564;SDS011;30275;51.822;-0.326;2022-11-15T06:12:56;8.13;;;2.03;;
44564;SDS011;30275;51.822;-0.326;2022-11-15T06:15:27;9.30;;;2.90;;
44564;SDS011;30275;51.822;-0.326;2022-11-15T06:17:53;8.43;;;1.88;;
44564;SDS011;30275;51.822;-0.326;2022-11-15T06:20:22;10.27;;;2.30;;
44564;SDS011;30275;51.822;-0.326;2022-11-15T06:22:49;12.63;;;2.28;;
44564;SDS011;30275;51.822;-0.326;2022-11-15T06:25:14;15.75;;;2.50;;
44564;SDS011;30275;51.822;-0.326;2022-11-15T06:27:40;8.43;;;1.88;;
44564;SDS011;30275;51.822;-0.326;2022-11-15T06:30:06;10.00;;;2.13;;
44564;SDS011;30275;51.822;-0.326;2022-11-15T06:32:32;8.85;;;2.10;;
44564;SDS011;30275;51.822;-0.326;2022-11-15T06:34:57;14.85;;;3.28;;
44564;SDS011;30275;51.822;-0.326;2022-11-15T06:37:23;7.13;;;1.80;;
44564;SDS011;30275;51.822;-0.326;2022-11-15T06:39:48;10.45;;;2.85;;
44564;SDS011;30275;51.822;-0.326;2022-11-15T06:42:14;9.50;;;2.40;;
44564;SDS011;30275;51.822;-0.326;2022-11-15T06:44:39;12.80;;;2.50;;
44564;SDS011;30275;51.822;-0.326;2022-11-15T06:47:05;13.15;;;3.47;;
44564;SDS011;30275;51.822;-0.326;2022-11-15T06:49:31;8.45;;;3.10;;
44564;SDS011;30275;51.822;-0.326;2022-11-15T06:51:56;7.70;;;2.33;;
44564;SDS011;30275;51.822;-0.326;2022-11-15T06:54:22;9.60;;;4.18;;
44564;SDS011;30275;51.822;-0.326;2022-11-15T06:56:47;12.48;;;2.58;;
44564;SDS011;30275;51.822;-0.326;2022-11-15T06:59:13;12.43;;;2.20;;
44564;SDS011;30275;51.822;-0.326;2022-11-15T07:01:39;6.28;;;2.15;;
44564;SDS011;30275;51.822;-0.326;2022-11-15T07:04:04;12.65;;;2.70;;
44564;SDS011;30275;51.822;-0.326;2022-11-15T07:06:30;7.22;;;2.80;;
44564;SDS011;30275;51.822;-0.326;2022-11-15T07:08:56;11.13;;;2.80;;
44564;SDS011;30275;51.822;-0.326;2022-11-15T07:11:21;9.40;;;2.47;;
44564;SDS011;30275;51.822;-0.326;2022-11-15T07:13:47;16.95;;;4.38;;
44564;SDS011;30275;51.822;-0.326;2022-11-15T07:16:13;14.90;;;2.72;;
44564;SDS011;30275;51.822;-0.326;2022-11-15T07:18:39;12.23;;;2.63;;
44564;SDS011;30275;51.822;-0.326;2022-11-15T07:21:06;10.27;;;3.13;;
44564;SDS011;30275;51.822;-0.326;2022-11-15T07:23:36;10.02;;;2.67;;
44564;SDS011;30275;51.822;-0.326;2022-11-15T07:26:06;14.27;;;2.83;;
44564;SDS011;30275;51.822;-0.326;2022-11-15T07:28:32;14.07;;;2.83;;
44564;SDS011;30275;51.822;-0.326;2022-11-15T07:30:58;8.27;;;2.25;;
44564;SDS011;30275;51.822;-0.326;2022-11-15T07:33:33;16.65;;;3.47;;
44564;SDS011;30275;51.822;-0.326;2022-11-15T07:36:00;9.75;;;2.70;;
44564;SDS011;30275;51.822;-0.326;2022-11-15T07:38:32;8.00;;;2.60;;
44564;SDS011;30275;51.822;-0.326;2022-11-15T07:41:00;11.70;;;3.15;;
44564;SDS011;30275;51.822;-0.326;2022-11-15T07:43:27;8.77;;;3.45;;
44564;SDS011;30275;51.822;-0.326;2022-11-15T07:45:54;9.38;;;2.50;;
44564;SDS011;30275;51.822;-0.326;2022-11-15T07:48:20;11.73;;;3.40;;
44564;SDS011;30275;51.822;-0.326;2022-11-15T07:50:46;8.85;;;3.20;;
44564;SDS011;30275;51.822;-0.326;2022-11-15T07:53:12;7.80;;;2.92;;
44564;SDS011;30275;51.822;-0.326;2022-11-15T07:55:39;16.20;;;3.20;;
44564;SDS011;30275;51.822;-0.326;2022-11-15T07:58:07;12.05;;;2.65;;
44564;SDS011;30275;51.822;-0.326;2022-11-15T08:00:34;5.28;;;2.90;;
44564;SDS011;30275;51.822;-0.326;2022-11-15T08:03:04;5.10;;;2.13;;
44564;SDS011;30275;51.822;-0.326;2022-11-15T08:05:32;4.35;;;2.10;;
44564;SDS011;30275;51.822;-0.326;2022-11-15T08:07:58;5.75;;;2.05;;
44564;SDS011;30275;51.822;-0.326;2022-11-15T08:10:24;8.13;;;1.95;;
44564;SDS011;30275;51.822;-0.326;2022-11-15T08:12:57;7.32;;;2.15;;
44564;SDS011;30275;51.822;-0.326;2022-11-15T08:15:31;7.43;;;2.13;;
44564;SDS011;30275;51.822;-0.326;2022-11-15T08:17:58;8.98;;;2.53;;
44564;SDS011;30275;51.822;-0.326;2022-11-15T08:20:26;9.23;;;2.22;;
44564;SDS011;30275;51.822;-0.326;2022-11-15T08:22:59;9.65;;;2.30;;
44564;SDS011;30275;51.822;-0.326;2022-11-15T08:25:26;7.47;;;2.00;;
44564;SDS011;30275;51.822;-0.326;2022-11-15T08:27:53;11.65;;;4.07;;
44564;SDS011;30275;51.822;-0.326;2022-11-15T08:30:19;6.10;;;2.10;;
44564;SDS011;30275;51.822;-0.326;2022-11-15T08:32:45;7.88;;;2.08;;
44564;SDS011;30275;51.822;-0.326;2022-11-15T08:35:11;6.28;;;1.95;;
44564;SDS011;30275;51.822;-0.326;2022-11-15T08:37:37;5.97;;;2.47;;
44564;SDS011;30275;51.822;-0.326;2022-11-15T08:40:03;5.57;;;2.25;;
44564;SDS011;30275;51.822;-0.326;2022-11-15T08:42:29;6.65;;;2.63;;
44564;SDS011;30275;51.822;-0.326;2022-11-15T08:44:55;6.70;;;2.30;;
44564;SDS011;30275;51.822;-0.326;2022-11-15T08:47:20;3.67;;;2.08;;
44564;SDS011;30275;51.822;-0.326;2022-11-15T08:49:46;4.95;;;1.90;;
44564;SDS011;30275;51.822;-0.326;2022-11-15T08:52:11;4.22;;;1.90;;
44564;SDS011;30275;51.822;-0.326;2022-11-15T08:54:38;6.10;;;2.05;;
44564;SDS011;30275;51.822;-0.326;2022-11-15T08:57:03;8.45;;;2.33;;
44564;SDS011;30275;51.822;-0.326;2022-11-15T08:59:29;3.85;;;2.10;;
44564;SDS011;30275;51.822;-0.326;2022-11-15T09:01:55;5.07;;;1.90;;
44564;SDS011;30275;51.822;-0.326;2022-11-15T09:04:20;4.65;;;1.70;;
44564;SDS011;30275;51.822;-0.326;2022-11-15T09:06:46;2.70;;;1.70;;
44564;SDS011;30275;51.822;-0.326;2022-11-15T09:09:12;5.47;;;2.00;;
44564;SDS011;30275;51.822;-0.326;2022-11-15T09:11:37;3.65;;;1.80;;
44564;SDS011;30275;51.822;-0.326;2022-11-15T09:14:03;4.50;;;2.25;;
44564;SDS011;30275;51.822;-0.326;2022-11-15T09:16:30;4.05;;;1.80;;
44564;SDS011;30275;51.822;-0.326;2022-11-15T09:18:55;3.90;;;2.20;;
44564;SDS011;30275;51.822;-0.326;2022-11-15T09:21:21;5.05;;;2.58;;
44564;SDS011;30275;51.822;-0.326;2022-11-15T09:23:49;4.82;;;2.55;;
44564;SDS011;30275;51.822;-0.326;2022-11-15T09:26:16;5.25;;;2.60;;
44564;SDS011;30275;51.822;-0.326;2022-11-15T09:28:42;5.35;;;2.70;;
44564;SDS011;30275;51.822;-0.326;2022-11-15T09:31:08;4.30;;;2.20;;
44564;SDS011;30275;51.822;-0.326;2022-11-15T09:33:34;5.07;;;1.88;;
44564;SDS011;30275;51.822;-0.326;2022-11-15T09:36:01;4.13;;;1.88;;
44564;SDS011;30275;51.822;-0.326;2022-11-15T09:38:28;4.28;;;1.60;;
44564;SDS011;30275;51.822;-0.326;2022-11-15T09:40:59;5.10;;;1.55;;
44564;SDS011;30275;51.822;-0.326;2022-11-15T09:49:08;4.45;;;2.00;;
44564;SDS011;30275;51.822;-0.326;2022-11-15T09:51:37;3.28;;;1.48;;
44564;SDS011;30275;51.822;-0.326;2022-11-15T09:56:46;3.75;;;1.63;;
44564;SDS011;30275;51.822;-0.326;2022-11-15T09:59:26;3.08;;;1.60;;
44564;SDS011;30275;51.822;-0.326;2022-11-15T10:02:27;4.47;;;1.50;;
44564;SDS011;30275;51.822;-0.326;2022-11-15T10:04:48;6.47;;;1.65;;
44564;SDS011;30275;51.822;-0.326;2022-11-15T10:10:04;2.72;;;1.27;;
44564;SDS011;30275;51.822;-0.326;2022-11-15T10:12:46;2.15;;;1.23;;
44564;SDS011;30275;51.822;-0.326;2022-11-15T10:15:16;1.85;;;1.23;;
44564;SDS011;30275;51.822;-0.326;2022-11-15T10:18:01;1.92;;;1.10;;
44564;SDS011;30275;51.822;-0.326;2022-11-15T10:20:29;2.80;;;1.27;;
44564;SDS011;30275;51.822;-0.326;2022-11-15T10:23:01;2.25;;;1.35;;
44564;SDS011;30275;51.822;-0.326;2022-11-15T10:25:32;3.97;;;1.27;;
44564;SDS011;30275;51.822;-0.326;2022-11-15T10:28:00;2.85;;;1.48;;
44564;SDS011;30275;51.822;-0.326;2022-11-15T10:30:36;1.75;;;1.20;;
44564;SDS011;30275;51.822;-0.326;2022-11-15T10:33:21;3.10;;;1.10;;
44564;SDS011;30275;51.822;-0.326;2022-11-15T10:46:31;1.50;;;1.25;;
44564;SDS011;30275;51.822;-0.326;2022-11-15T10:49:14;1.88;;;1.25;;
44564;SDS011;30275;51.822;-0.326;2022-11-15T10:51:45;3.20;;;1.50;;
44564;SDS011;30275;51.822;-0.326;2022-11-15T10:54:11;1.92;;;1.00;;
44564;SDS011;30275;51.822;-0.326;2022-11-15T10:56:39;3.22;;;1.20;;
44564;SDS011;30275;51.822;-0.326;2022-11-15T10:59:09;1.63;;;1.50;;
44564;SDS011;30275;51.822;-0.326;2022-11-15T11:01:45;1.50;;;1.08;;
44564;SDS011;30275;51.822;-0.326;2022-11-15T11:04:12;2.50;;;1.08;;
44564;SDS011;30275;51.822;-0.326;2022-11-15T11:12:26;2.70;;;1.27;;
44564;SDS011;30275;51.822;-0.326;2022-11-15T11:14:54;2.88;;;1.30;;
44564;SDS011;30275;51.822;-0.326;2022-11-15T11:17:36;3.08;;;1.10;;
44564;SDS011;30275;51.822;-0.326;2022-11-15T11:25:11;3.63;;;1.00;;
44564;SDS011;30275;51.822;-0.326;2022-11-15T11:30:51;5.85;;;1.40;;
44564;SDS011;30275;51.822;-0.326;2022-11-15T11:33:42;4.85;;;1.40;;
44564;SDS011;30275;51.822;-0.326;2022-11-15T11:47:13;4.20;;;1.63;;
44564;SDS011;30275;51.822;-0.326;2022-11-15T11:49:53;3.58;;;1.63;;
44564;SDS011;30275;51.822;-0.326;2022-11-15T11:52:31;3.90;;;1.30;;
44564;SDS011;30275;51.822;-0.326;2022-11-15T12:02:50;1.58;;;1.20;;
44564;SDS011;30275;51.822;-0.326;2022-11-15T12:05:32;1.92;;;0.82;;
44564;SDS011;30275;51.822;-0.326;2022-11-15T12:10:50;3.42;;;1.45;;
44564;SDS011;30275;51.822;-0.326;2022-11-15T12:13:24;1.52;;;0.90;;
44564;SDS011;30275;51.822;-0.326;2022-11-15T12:16:52;4.82;;;1.50;;
44564;SDS011;30275;51.822;-0.326;2022-11-15T12:18:49;3.53;;;1.60;;
44564;SDS011;30275;51.822;-0.326;2022-11-15T12:21:21;2.60;;;1.35;;
44564;SDS011;30275;51.822;-0.326;2022-11-15T12:23:53;2.42;;;1.20;;
44564;SDS011;30275;51.822;-0.326;2022-11-15T12:26:25;3.40;;;1.35;;
44564;SDS011;30275;51.822;-0.326;2022-11-15T12:28:57;1.92;;;1.50;;
44564;SDS011;30275;51.822;-0.326;2022-11-15T12:34:04;4.13;;;1.33;;
44564;SDS011;30275;51.822;-0.326;2022-11-15T12:36:50;1.58;;;1.10;;
44564;SDS011;30275;51.822;-0.326;2022-11-15T12:39:17;2.33;;;1.75;;
44564;SDS011;30275;51.822;-0.326;2022-11-15T12:41:45;4.82;;;1.25;;
44564;SDS011;30275;51.822;-0.326;2022-11-15T13:22:48;0.08;;;0.08;;
44564;SDS011;30275;51.822;-0.326;2022-11-15T13:28:35;0.10;;;0.10;;
44564;SDS011;30275;51.822;-0.326;2022-11-15T13:31:03;0.23;;;0.23;;
44564;SDS011;30275;51.822;-0.326;2022-11-15T13:33:51;0.00;;;0.00;;
44564;SDS011;30275;51.822;-0.326;2022-11-15T13:39:11;0.10;;;0.10;;
44564;SDS011;30275;51.822;-0.326;2022-11-15T13:41:49;0.15;;;0.15;;
44564;SDS011;30275;51.822;-0.326;2022-11-15T13:44:22;0.35;;;0.35;;
44564;SDS011;30275;51.822;-0.326;2022-11-15T13:49:40;1.02;;;1.02;;
44564;SDS011;30275;51.822;-0.326;2022-11-15T13:52:07;0.00;;;0.00;;
44564;SDS011;30275;51.822;-0.326;2022-11-15T13:54:55;0.05;;;0.05;;
44564;SDS011;30275;51.822;-0.326;2022-11-15T14:05:43;0.10;;;0.10;;
44564;SDS011;30275;51.822;-0.326;2022-11-15T14:08:26;0.00;;;0.00;;
44564;SDS011;30275;51.822;-0.326;2022-11-15T14:13:41;0.10;;;0.10;;
44564;SDS011;30275;51.822;-0.326;2022-11-15T14:18:57;0.10;;;0.10;;
44564;SDS011;30275;51.822;-0.326;2022-11-15T14:21:22;0.10;;;0.10;;
44564;SDS011;30275;51.822;-0.326;2022-11-15T14:23:48;0.10;;;0.10;;
44564;SDS011;30275;51.822;-0.326;2022-11-15T14:26:33;0.10;;;0.10;;
44564;SDS011;30275;51.822;-0.326;2022-11-15T14:31:49;0.10;;;0.10;;
44564;SDS011;30275;51.822;-0.326;2022-11-15T14:34:14;0.00;;;0.00;;
44564;SDS011;30275;51.822;-0.326;2022-11-15T14:36:40;0.00;;;0.00;;
44564;SDS011;30275;51.822;-0.326;2022-11-15T14:39:06;0.10;;;0.10;;
44564;SDS011;30275;51.822;-0.326;2022-11-15T14:41:34;0.10;;;0.10;;
44564;SDS011;30275;51.822;-0.326;2022-11-15T14:44:03;0.10;;;0.10;;
44564;SDS011;30275;51.822;-0.326;2022-11-15T14:46:29;0.10;;;0.10;;
44564;SDS011;30275;51.822;-0.326;2022-11-15T14:48:56;0.00;;;0.00;;
44564;SDS011;30275;51.822;-0.326;2022-11-15T14:51:21;0.00;;;0.00;;
44564;SDS011;30275;51.822;-0.326;2022-11-15T14:53:47;0.10;;;0.10;;
44564;SDS011;30275;51.822;-0.326;2022-11-15T14:56:13;0.10;;;0.10;;
44564;SDS011;30275;51.822;-0.326;2022-11-15T14:58:39;0.10;;;0.10;;
44564;SDS011;30275;51.822;-0.326;2022-11-15T15:01:17;0.10;;;0.10;;
44564;SDS011;30275;51.822;-0.326;2022-11-15T15:03:48;0.00;;;0.00;;
44564;SDS011;30275;51.822;-0.326;2022-11-15T15:06:17;0.10;;;0.10;;
44564;SDS011;30275;51.822;-0.326;2022-11-15T15:08:43;0.00;;;0.00;;
44564;SDS011;30275;51.822;-0.326;2022-11-15T15:11:14;0.10;;;0.10;;
44564;SDS011;30275;51.822;-0.326;2022-11-15T15:13:43;0.10;;;0.10;;
44564;SDS011;30275;51.822;-0.326;2022-11-15T15:16:09;0.10;;;0.10;;
44564;SDS011;30275;51.822;-0.326;2022-11-15T15:18:35;0.10;;;0.10;;
44564;SDS011;30275;51.822;-0.326;2022-11-15T15:21:01;0.30;;;0.30;;
44564;SDS011;30275;51.822;-0.326;2022-11-15T15:23:31;0.00;;;0.00;;
44564;SDS011;30275;51.822;-0.326;2022-11-15T15:25:58;0.45;;;0.45;;
44564;SDS011;30275;51.822;-0.326;2022-11-15T15:28:24;0.00;;;0.00;;
44564;SDS011;30275;51.822;-0.326;2022-11-15T15:30:49;0.00;;;0.00;;
44564;SDS011;30275;51.822;-0.326;2022-11-15T15:33:15;0.10;;;0.10;;
44564;SDS011;30275;51.822;-0.326;2022-11-15T15:35:41;0.10;;;0.10;;
44564;SDS011;30275;51.822;-0.326;2022-11-15T15:38:09;0.10;;;0.10;;
44564;SDS011;30275;51.822;-0.326;2022-11-15T15:40:37;0.10;;;0.10;;
44564;SDS011;30275;51.822;-0.326;2022-11-15T15:43:02;0.10;;;0.10;;
44564;SDS011;30275;51.822;-0.326;2022-11-15T15:45:28;0.10;;;0.10;;
44564;SDS011;30275;51.822;-0.326;2022-11-15T15:47:54;0.47;;;0.47;;
44564;SDS011;30275;51.822;-0.326;2022-11-15T15:50:22;1.27;;;1.27;;
44564;SDS011;30275;51.822;-0.326;2022-11-15T15:52:52;0.10;;;0.10;;
44564;SDS011;30275;51.822;-0.326;2022-11-15T15:55:20;0.10;;;0.10;;
44564;SDS011;30275;51.822;-0.326;2022-11-15T15:57:46;0.00;;;0.00;;
44564;SDS011;30275;51.822;-0.326;2022-11-15T16:00:12;0.10;;;0.10;;
44564;SDS011;30275;51.822;-0.326;2022-11-15T16:02:39;0.10;;;0.10;;
44564;SDS011;30275;51.822;-0.326;2022-11-15T16:05:05;0.05;;;0.05;;
44564;SDS011;30275;51.822;-0.326;2022-11-15T16:07:31;0.20;;;0.20;;
44564;SDS011;30275;51.822;-0.326;2022-11-15T16:10:00;0.00;;;0.00;;
44564;SDS011;30275;51.822;-0.326;2022-11-15T16:15:53;1.08;;;0.98;;
44564;SDS011;30275;51.822;-0.326;2022-11-15T16:18:36;0.10;;;0.10;;
44564;SDS011;30275;51.822;-0.326;2022-11-15T16:21:11;0.00;;;0.00;;
44564;SDS011;30275;51.822;-0.326;2022-11-15T16:23:39;0.10;;;0.10;;
44564;SDS011;30275;51.822;-0.326;2022-11-15T16:26:14;0.10;;;0.10;;
44564;SDS011;30275;51.822;-0.326;2022-11-15T16:28:49;0.75;;;0.75;;
44564;SDS011;30275;51.822;-0.326;2022-11-15T16:31:15;1.55;;;1.45;;
44564;SDS011;30275;51.822;-0.326;2022-11-15T16:33:48;0.00;;;0.00;;
44564;SDS011;30275;51.822;-0.326;2022-11-15T16:36:24;0.35;;;0.35;;
44564;SDS011;30275;51.822;-0.326;2022-11-15T16:38:50;0.10;;;0.10;;
44564;SDS011;30275;51.822;-0.326;2022-11-15T16:41:17;0.10;;;0.10;;
44564;SDS011;30275;51.822;-0.326;2022-11-15T16:43:46;0.00;;;0.00;;
44564;SDS011;30275;51.822;-0.326;2022-11-15T16:48:47;0.00;;;0.00;;
44564;SDS011;30275;51.822;-0.326;2022-11-15T16:51:14;0.10;;;0.10;;
44564;SDS011;30275;51.822;-0.326;2022-11-15T16:53:39;0.00;;;0.00;;
44564;SDS011;30275;51.822;-0.326;2022-11-15T16:56:17;0.22;;;0.22;;
44564;SDS011;30275;51.822;-0.326;2022-11-15T16:58:46;0.73;;;0.73;;
44564;SDS011;30275;51.822;-0.326;2022-11-15T17:01:16;0.10;;;0.10;;
44564;SDS011;30275;51.822;-0.326;2022-11-15T17:03:47;0.17;;;0.17;;
44564;SDS011;30275;51.822;-0.326;2022-11-15T17:06:13;0.13;;;0.13;;
44564;SDS011;30275;51.822;-0.326;2022-11-15T17:08:39;0.43;;;0.43;;
44564;SDS011;30275;51.822;-0.326;2022-11-15T17:11:06;0.10;;;0.10;;
44564;SDS011;30275;51.822;-0.326;2022-11-15T17:13:41;1.10;;;1.10;;